createdAt,value
2023-02-16T00:04:29.601Z,47.33
2023-02-16T00:09:31.607Z,49.40
2023-02-16T00:14:36.423Z,47.97
2023-02-16T00:19:41.974Z,52.17
2023-02-16T00:24:43.791Z,56.33
2023-02-16T00:29:46.118Z,50.20
2023-02-16T00:34:48.112Z,50.07
2023-02-16T00:39:49.897Z,49.77
2023-02-16T00:44:53.853Z,50.93
2023-02-16T00:49:55.926Z,46.93
2023-02-16T00:54:59.759Z,47.00
2023-02-16T01:00:25.172Z,48.40
2023-02-16T01:05:28.326Z,50.60
2023-02-16T01:10:48.836Z,47.47
2023-02-16T01:15:50.813Z,49.93
2023-02-16T01:20:52.886Z,50.60
2023-02-16T01:25:55.169Z,51.20
2023-02-16T01:30:57.219Z,49.23
2023-02-16T01:35:59.251Z,51.20
2023-02-16T01:41:04.498Z,58.13
2023-02-16T01:46:15.008Z,50.97
2023-02-16T01:51:33.555Z,50.50
2023-02-16T01:56:43.760Z,45.93
2023-02-16T02:01:54.333Z,47.83
2023-02-16T02:06:57.682Z,46.17
2023-02-16T02:12:18.310Z,44.37
2023-02-16T02:17:21.692Z,50.93
2023-02-16T02:23:08.372Z,44.27
2023-02-16T02:28:23.338Z,46.00
2023-02-16T02:33:49.735Z,47.07
2023-02-16T02:39:07.341Z,43.30
2023-02-16T02:44:10.485Z,44.20
2023-02-16T02:49:12.960Z,43.87
2023-02-16T02:54:55.074Z,50.73
2023-02-16T03:00:28.662Z,44.27
2023-02-16T03:05:34.275Z,42.23
2023-02-16T03:10:57.002Z,41.83
2023-02-16T03:16:05.272Z,43.40
2023-02-16T03:21:25.733Z,45.13
2023-02-16T03:26:48.283Z,45.17
2023-02-16T03:31:55.557Z,51.67
2023-02-16T03:37:00.945Z,41.03
2023-02-16T03:42:03.807Z,39.17
2023-02-16T03:47:10.908Z,43.97
2023-02-16T03:52:12.864Z,40.53
2023-02-16T03:57:19.487Z,45.40
2023-02-16T04:02:21.922Z,43.50
2023-02-16T04:07:24.532Z,40.03
2023-02-16T04:12:38.488Z,42.90
2023-02-16T04:40:30.401Z,38.97
2023-02-16T04:45:35.059Z,44.13
2023-02-16T04:50:37.349Z,46.53
2023-02-16T04:55:39.851Z,38.23
2023-02-16T05:00:41.778Z,37.87
2023-02-16T05:05:44.925Z,38.77
2023-02-16T05:11:07.190Z,37.53
2023-02-16T05:16:09.383Z,38.40
2023-02-16T05:21:29.924Z,41.97
2023-02-16T05:26:32.553Z,39.83
2023-02-16T05:31:34.483Z,39.80
2023-02-16T05:36:36.647Z,36.60
2023-02-16T05:41:38.526Z,40.50
2023-02-16T05:46:41.339Z,36.50
2023-02-16T05:51:43.751Z,40.87
2023-02-16T05:56:51.522Z,38.20
2023-02-16T06:01:54.332Z,37.70
2023-02-16T06:06:57.263Z,36.30
2023-02-16T06:11:59.733Z,35.97
2023-02-16T06:17:01.625Z,35.80
2023-02-16T06:22:03.583Z,38.10
2023-02-16T06:27:05.542Z,43.70
2023-02-16T06:32:07.843Z,38.90
2023-02-16T06:37:09.874Z,36.80
2023-02-16T06:42:12.176Z,34.87
2023-02-16T06:47:14.931Z,36.17
2023-02-16T06:52:17.079Z,36.20
2023-02-16T06:57:19.412Z,36.60
2023-02-16T07:02:21.270Z,38.83
2023-02-16T07:07:24.136Z,31.47
2023-02-16T07:12:26.024Z,44.37
2023-02-16T07:17:28.056Z,38.13
2023-02-16T07:22:30.079Z,36.17
2023-02-16T07:27:32.442Z,37.83
2023-02-16T07:32:34.444Z,35.13
2023-02-16T07:37:37.145Z,38.37
2023-02-16T07:42:39.386Z,38.47
2023-02-16T07:47:41.926Z,39.63
2023-02-16T07:52:43.991Z,36.80
2023-02-16T07:57:46.206Z,37.20
2023-02-16T08:02:49.089Z,38.40
2023-02-16T08:07:51.228Z,42.57
2023-02-16T08:12:53.292Z,37.83
2023-02-16T08:17:55.182Z,37.60
2023-02-16T08:22:57.371Z,41.87
2023-02-16T08:27:59.224Z,37.07
2023-02-16T08:33:02.097Z,35.73
2023-02-16T08:38:03.979Z,43.17
2023-02-16T08:43:05.861Z,40.93
2023-02-16T08:48:07.754Z,40.70
2023-02-16T08:53:09.600Z,38.73
2023-02-16T08:58:11.569Z,39.53
2023-02-16T09:03:13.439Z,38.60
2023-02-16T09:08:15.902Z,38.70
2023-02-16T09:13:17.907Z,41.93
2023-02-16T09:18:19.872Z,41.43
2023-02-16T09:23:22.083Z,42.63
2023-02-16T09:28:23.990Z,41.40
2023-02-16T09:33:26.184Z,49.57
2023-02-16T09:38:28.315Z,41.67
2023-02-16T09:43:56.596Z,38.07
2023-02-16T09:49:02.329Z,43.27
2023-02-16T09:54:32.519Z,40.37
2023-02-16T09:59:43.158Z,54.63
2023-02-16T10:05:03.277Z,43.07
2023-02-16T10:10:07.505Z,35.80
2023-02-16T10:15:16.414Z,43.27
2023-02-16T10:20:37.247Z,37.53
2023-02-16T10:25:57.549Z,35.40
2023-02-16T10:31:10.446Z,39.20
2023-02-16T10:36:35.086Z,40.33
2023-02-16T10:41:44.202Z,40.33
2023-02-16T10:46:52.074Z,41.00
2023-02-16T10:51:56.595Z,36.10
2023-02-16T10:57:04.110Z,34.17
2023-02-16T11:02:19.654Z,40.90
2023-02-16T11:07:23.861Z,39.93
2023-02-16T11:12:38.401Z,35.07
2023-02-16T11:17:57.589Z,35.60
2023-02-16T11:23:17.830Z,32.13
2023-02-16T11:28:28.169Z,31.77
2023-02-16T11:33:30.309Z,32.93
2023-02-16T11:38:34.878Z,30.20
2023-02-16T11:43:38.909Z,27.00
2023-02-16T11:48:41.328Z,25.40
2023-02-16T11:53:44.348Z,25.53
2023-02-16T11:59:05.308Z,23.60
2023-02-16T12:04:50.728Z,23.60
2023-02-16T12:10:03.522Z,21.23
2023-02-16T12:15:36.452Z,23.42
2023-02-16T12:20:56.942Z,19.35
2023-02-16T12:26:34.022Z,24.15
2023-02-16T12:31:47.490Z,21.42
2023-02-16T12:36:58.623Z,23.25
2023-02-16T12:42:29.756Z,20.50
2023-02-16T12:47:38.542Z,26.38
2023-02-16T12:52:52.700Z,22.65
2023-02-16T12:58:15.805Z,21.75
2023-02-16T13:03:37.976Z,19.38
2023-02-16T13:09:17.322Z,19.92
2023-02-16T13:14:25.316Z,21.45
2023-02-16T13:19:27.948Z,21.83
2023-02-16T13:24:50.940Z,22.13
2023-02-16T13:30:04.369Z,25.33
2023-02-16T13:35:17.109Z,24.90
2023-02-16T13:40:25.340Z,25.30
2023-02-16T13:45:33.887Z,21.25
2023-02-16T13:50:35.803Z,19.88
2023-02-16T13:55:39.472Z,19.83
2023-02-16T14:00:47.933Z,24.27
2023-02-16T14:05:53.205Z,20.23
2023-02-16T14:10:57.268Z,20.63
2023-02-16T14:16:04.625Z,22.45
2023-02-16T14:21:18.749Z,21.77
2023-02-16T14:26:20.870Z,20.35
2023-02-16T14:31:26.017Z,20.67
2023-02-16T14:36:29.139Z,21.30
2023-02-16T14:41:35.278Z,21.08
2023-02-16T14:47:11.447Z,23.17
2023-02-16T14:52:51.281Z,21.75
2023-02-16T14:58:22.223Z,20.52
2023-02-16T15:03:27.304Z,21.98
2023-02-16T15:08:34.787Z,22.77
2023-02-16T15:13:36.654Z,18.47
2023-02-16T15:18:42.692Z,20.67
2023-02-16T15:23:53.134Z,19.00
2023-02-16T15:29:01.208Z,25.13
2023-02-16T15:34:11.900Z,20.13
2023-02-16T15:39:16.491Z,22.40
2023-02-16T15:44:34.461Z,23.43
2023-02-16T15:49:38.904Z,12.67
2023-02-16T15:54:41.534Z,17.60
2023-02-16T15:59:47.534Z,19.10
2023-02-16T16:04:56.281Z,21.00
2023-02-16T16:09:59.521Z,23.43
2023-02-16T16:15:02.555Z,17.97
2023-02-16T16:20:28.809Z,22.83
2023-02-16T16:25:48.038Z,16.43
2023-02-16T16:31:26.014Z,18.67
2023-02-16T16:36:33.127Z,22.23
2023-02-16T16:41:34.978Z,31.13
2023-02-16T16:46:36.776Z,21.33
2023-02-16T16:51:41.691Z,22.60
2023-02-16T16:56:43.482Z,21.53
2023-02-16T17:01:47.912Z,26.30
2023-02-16T17:06:49.804Z,21.77
2023-02-16T17:11:51.748Z,23.00
2023-02-16T17:16:54.344Z,23.13
2023-02-16T17:21:56.268Z,25.07
2023-02-16T17:26:58.148Z,25.10
2023-02-16T17:32:00.347Z,24.43
2023-02-16T17:37:07.373Z,27.33
2023-02-16T17:42:13.198Z,27.93
2023-02-16T17:47:16.658Z,26.90
2023-02-16T17:52:18.597Z,29.03
2023-02-16T17:57:20.626Z,22.27
2023-02-16T18:02:22.688Z,25.97
2023-02-16T18:07:24.555Z,27.90
2023-02-16T18:12:28.394Z,30.13
2023-02-16T18:17:30.428Z,29.70
2023-02-16T18:22:32.647Z,24.07
2023-02-16T18:27:34.482Z,28.77
2023-02-16T18:32:36.557Z,22.57
2023-02-16T18:37:39.066Z,26.47
2023-02-16T18:42:41.333Z,24.37
2023-02-16T18:47:45.152Z,25.50
2023-02-16T18:52:47.592Z,19.90
2023-02-16T18:57:49.692Z,28.50
2023-02-16T19:02:51.614Z,26.40
2023-02-16T19:07:53.597Z,24.63
2023-02-16T19:12:55.404Z,24.83
2023-02-16T19:17:57.213Z,27.97
2023-02-16T19:22:59.453Z,27.90
2023-02-16T19:28:01.336Z,18.97
2023-02-16T19:33:03.497Z,22.07
2023-02-16T19:38:05.326Z,20.80
2023-02-16T19:43:07.405Z,20.53
2023-02-16T19:48:09.489Z,17.90
2023-02-16T19:53:11.620Z,19.67
2023-02-16T19:58:13.811Z,13.53
2023-02-16T20:03:16.252Z,10.93
2023-02-16T20:08:18.173Z,14.33
2023-02-16T20:13:20.054Z,20.80
2023-02-16T20:18:22.449Z,14.70
2023-02-16T20:23:24.283Z,14.43
2023-02-16T20:28:26.967Z,15.40
2023-02-16T20:33:29.043Z,15.77
2023-02-16T20:38:31.016Z,15.30
2023-02-16T20:43:34.122Z,14.20
2023-02-16T20:48:36.179Z,14.33
2023-02-16T20:53:38.490Z,14.43
2023-02-16T20:58:41.392Z,14.37
2023-02-16T21:03:43.562Z,11.47
2023-02-16T21:08:45.524Z,11.63
2023-02-16T21:13:48.519Z,12.60
2023-02-16T21:18:50.338Z,11.30
2023-02-16T21:23:54.422Z,10.27
2023-02-16T21:28:56.277Z,8.87
2023-02-16T21:33:58.187Z,8.27
2023-02-16T21:39:02.982Z,7.20
2023-02-16T21:44:08.323Z,10.27
2023-02-16T21:49:16.225Z,8.07
2023-02-16T21:54:39.445Z,9.80
2023-02-16T21:59:41.407Z,9.10
2023-02-16T22:04:43.727Z,6.67
2023-02-16T22:09:46.394Z,6.33
2023-02-16T22:14:48.493Z,5.97
2023-02-16T22:19:50.378Z,6.80
2023-02-16T22:24:52.223Z,6.63
2023-02-16T22:29:54.153Z,7.63
2023-02-16T22:34:56.046Z,7.20
2023-02-16T22:39:58.052Z,7.73
2023-02-16T22:44:59.913Z,8.00
2023-02-16T22:50:01.761Z,6.50
2023-02-16T22:55:05.173Z,5.97
2023-02-16T23:00:10.728Z,8.10
2023-02-16T23:05:12.546Z,6.70
2023-02-16T23:10:15.979Z,6.53
2023-02-16T23:15:17.966Z,7.10
2023-02-16T23:20:19.999Z,6.90
2023-02-16T23:25:34.036Z,6.57
2023-02-16T23:30:35.972Z,9.37
2023-02-16T23:35:41.716Z,11.13
2023-02-16T23:40:43.845Z,9.07
2023-02-16T23:45:45.647Z,8.77
2023-02-16T23:50:49.112Z,9.00
2023-02-16T23:56:14.994Z,9.90
